sensor_id;sensor_type;location;lat;lon;timestamp;temperature;humidity
25983;DHT22;13773;48.868;10.730;2022-08-19T00:00:14;18.70;99.90
25983;DHT22;13773;48.868;10.730;2022-08-19T00:02:41;18.60;99.90
25983;DHT22;13773;48.868;10.730;2022-08-19T00:05:10;18.60;99.90
25983;DHT22;13773;48.868;10.730;2022-08-19T00:07:36;18.60;99.90
25983;DHT22;13773;48.868;10.730;2022-08-19T00:10:05;18.50;99.90
25983;DHT22;13773;48.868;10.730;2022-08-19T00:12:32;18.50;99.90
25983;DHT22;13773;48.868;10.730;2022-08-19T00:14:58;18.60;99.90
25983;DHT22;13773;48.868;10.730;2022-08-19T00:17:23;18.60;99.90
25983;DHT22;13773;48.868;10.730;2022-08-19T00:19:49;18.60;99.90
25983;DHT22;13773;48.868;10.730;2022-08-19T00:22:15;18.50;99.90
25983;DHT22;13773;48.868;10.730;2022-08-19T00:24:46;18.40;99.90
25983;DHT22;13773;48.868;10.730;2022-08-19T00:27:12;18.40;99.90
25983;DHT22;13773;48.868;10.730;2022-08-19T00:29:38;18.30;99.90
25983;DHT22;13773;48.868;10.730;2022-08-19T00:32:04;18.30;99.90
25983;DHT22;13773;48.868;10.730;2022-08-19T00:34:30;18.20;99.90
25983;DHT22;13773;48.868;10.730;2022-08-19T00:36:56;18.20;99.90
25983;DHT22;13773;48.868;10.730;2022-08-19T00:39:23;18.10;99.90
25983;DHT22;13773;48.868;10.730;2022-08-19T00:41:50;18.10;99.90
25983;DHT22;13773;48.868;10.730;2022-08-19T00:44:22;18.10;99.90
25983;DHT22;13773;48.868;10.730;2022-08-19T00:46:50;18.10;99.90
25983;DHT22;13773;48.868;10.730;2022-08-19T00:49:19;18.00;99.90
25983;DHT22;13773;48.868;10.730;2022-08-19T00:51:50;18.00;99.90
25983;DHT22;13773;48.868;10.730;2022-08-19T00:54:17;18.00;99.90
25983;DHT22;13773;48.868;10.730;2022-08-19T00:56:43;18.00;99.90
25983;DHT22;13773;48.868;10.730;2022-08-19T00:59:10;18.00;99.90
25983;DHT22;13773;48.868;10.730;2022-08-19T01:01:40;18.00;99.90
25983;DHT22;13773;48.868;10.730;2022-08-19T01:04:07;18.00;99.90
25983;DHT22;13773;48.868;10.730;2022-08-19T01:06:33;18.00;99.90
25983;DHT22;13773;48.868;10.730;2022-08-19T01:09:01;17.90;99.90
25983;DHT22;13773;48.868;10.730;2022-08-19T01:11:27;17.90;99.90
25983;DHT22;13773;48.868;10.730;2022-08-19T01:13:54;17.90;99.90
25983;DHT22;13773;48.868;10.730;2022-08-19T01:16:22;17.90;99.90
25983;DHT22;13773;48.868;10.730;2022-08-19T01:18:50;17.90;99.90
25983;DHT22;13773;48.868;10.730;2022-08-19T01:23:51;17.90;99.90
25983;DHT22;13773;48.868;10.730;2022-08-19T01:26:20;17.90;99.90
25983;DHT22;13773;48.868;10.730;2022-08-19T01:28:48;17.80;99.90
25983;DHT22;13773;48.868;10.730;2022-08-19T01:31:17;17.90;99.90
25983;DHT22;13773;48.868;10.730;2022-08-19T01:33:44;17.80;99.90
25983;DHT22;13773;48.868;10.730;2022-08-19T01:36:16;17.70;99.90
25983;DHT22;13773;48.868;10.730;2022-08-19T01:38:47;17.60;99.90
25983;DHT22;13773;48.868;10.730;2022-08-19T01:41:14;17.60;99.90
25983;DHT22;13773;48.868;10.730;2022-08-19T01:43:40;17.60;99.90
25983;DHT22;13773;48.868;10.730;2022-08-19T01:46:06;17.60;99.90
25983;DHT22;13773;48.868;10.730;2022-08-19T01:48:38;17.60;99.90
25983;DHT22;13773;48.868;10.730;2022-08-19T01:51:05;17.70;99.90
25983;DHT22;13773;48.868;10.730;2022-08-19T01:53:32;17.70;99.90
25983;DHT22;13773;48.868;10.730;2022-08-19T01:55:58;17.70;99.90
25983;DHT22;13773;48.868;10.730;2022-08-19T01:58:28;17.70;99.90
25983;DHT22;13773;48.868;10.730;2022-08-19T02:00:56;16.90;99.90
25983;DHT22;13773;48.868;10.730;2022-08-19T02:03:22;17.70;99.90
25983;DHT22;13773;48.868;10.730;2022-08-19T02:05:54;17.70;99.90
25983;DHT22;13773;48.868;10.730;2022-08-19T02:08:20;17.70;99.90
25983;DHT22;13773;48.868;10.730;2022-08-19T02:10:46;17.80;99.90
25983;DHT22;13773;48.868;10.730;2022-08-19T02:13:13;17.80;99.90
25983;DHT22;13773;48.868;10.730;2022-08-19T02:15:39;17.80;99.90
25983;DHT22;13773;48.868;10.730;2022-08-19T02:18:05;17.80;99.90
25983;DHT22;13773;48.868;10.730;2022-08-19T02:20:32;17.80;99.90
25983;DHT22;13773;48.868;10.730;2022-08-19T02:22:59;17.80;99.90
25983;DHT22;13773;48.868;10.730;2022-08-19T02:25:26;17.80;99.90
25983;DHT22;13773;48.868;10.730;2022-08-19T02:27:52;17.70;99.90
25983;DHT22;13773;48.868;10.730;2022-08-19T02:30:19;17.70;99.90
25983;DHT22;13773;48.868;10.730;2022-08-19T02:32:45;17.80;99.90
25983;DHT22;13773;48.868;10.730;2022-08-19T02:35:12;17.80;99.90
25983;DHT22;13773;48.868;10.730;2022-08-19T02:37:39;17.70;99.90
25983;DHT22;13773;48.868;10.730;2022-08-19T02:40:23;17.70;99.90
25983;DHT22;13773;48.868;10.730;2022-08-19T02:42:49;17.80;99.90
25983;DHT22;13773;48.868;10.730;2022-08-19T02:45:15;17.80;99.90
25983;DHT22;13773;48.868;10.730;2022-08-19T02:47:40;17.80;99.90
25983;DHT22;13773;48.868;10.730;2022-08-19T02:50:06;17.80;99.90
25983;DHT22;13773;48.868;10.730;2022-08-19T02:52:33;17.80;99.90
25983;DHT22;13773;48.868;10.730;2022-08-19T02:54:59;17.80;99.90
25983;DHT22;13773;48.868;10.730;2022-08-19T02:57:26;17.80;99.90
25983;DHT22;13773;48.868;10.730;2022-08-19T02:59:53;17.70;99.90
25983;DHT22;13773;48.868;10.730;2022-08-19T03:02:19;17.70;99.90
25983;DHT22;13773;48.868;10.730;2022-08-19T03:04:45;17.70;99.90
25983;DHT22;13773;48.868;10.730;2022-08-19T03:07:13;17.70;99.90
25983;DHT22;13773;48.868;10.730;2022-08-19T03:09:39;17.60;99.90
25983;DHT22;13773;48.868;10.730;2022-08-19T03:12:05;17.60;99.90
25983;DHT22;13773;48.868;10.730;2022-08-19T03:14:32;17.60;99.90
25983;DHT22;13773;48.868;10.730;2022-08-19T03:16:58;17.60;99.90
25983;DHT22;13773;48.868;10.730;2022-08-19T03:19:24;17.60;99.90
25983;DHT22;13773;48.868;10.730;2022-08-19T03:21:50;17.60;99.90
25983;DHT22;13773;48.868;10.730;2022-08-19T03:24:16;17.60;99.90
25983;DHT22;13773;48.868;10.730;2022-08-19T03:26:48;17.60;99.90
25983;DHT22;13773;48.868;10.730;2022-08-19T03:29:15;17.70;99.90
25983;DHT22;13773;48.868;10.730;2022-08-19T03:31:43;17.70;99.90
25983;DHT22;13773;48.868;10.730;2022-08-19T03:34:28;17.70;99.90
25983;DHT22;13773;48.868;10.730;2022-08-19T03:36:56;17.70;99.90
25983;DHT22;13773;48.868;10.730;2022-08-19T03:39:23;17.70;99.90
25983;DHT22;13773;48.868;10.730;2022-08-19T03:41:52;17.70;99.90
25983;DHT22;13773;48.868;10.730;2022-08-19T03:44:20;17.70;99.90
25983;DHT22;13773;48.868;10.730;2022-08-19T03:46:51;17.60;99.90
25983;DHT22;13773;48.868;10.730;2022-08-19T03:49:17;17.70;99.90
25983;DHT22;13773;48.868;10.730;2022-08-19T03:51:43;17.70;99.90
25983;DHT22;13773;48.868;10.730;2022-08-19T03:54:11;17.70;99.90
25983;DHT22;13773;48.868;10.730;2022-08-19T03:56:39;17.70;99.90
25983;DHT22;13773;48.868;10.730;2022-08-19T03:59:08;17.70;99.90
25983;DHT22;13773;48.868;10.730;2022-08-19T04:01:34;17.70;99.90
25983;DHT22;13773;48.868;10.730;2022-08-19T04:04:01;17.70;99.90
25983;DHT22;13773;48.868;10.730;2022-08-19T04:06:30;17.70;99.90
25983;DHT22;13773;48.868;10.730;2022-08-19T04:08:58;17.70;99.90
25983;DHT22;13773;48.868;10.730;2022-08-19T04:11:30;17.70;99.90
25983;DHT22;13773;48.868;10.730;2022-08-19T04:13:56;17.70;99.90
25983;DHT22;13773;48.868;10.730;2022-08-19T04:16:25;17.80;99.90
25983;DHT22;13773;48.868;10.730;2022-08-19T04:18:54;17.70;99.90
25983;DHT22;13773;48.868;10.730;2022-08-19T04:21:23;17.80;99.90
25983;DHT22;13773;48.868;10.730;2022-08-19T04:23:50;17.70;99.90
25983;DHT22;13773;48.868;10.730;2022-08-19T04:26:17;17.70;99.90
25983;DHT22;13773;48.868;10.730;2022-08-19T04:28:44;17.70;99.90
25983;DHT22;13773;48.868;10.730;2022-08-19T04:31:21;17.70;99.90
25983;DHT22;13773;48.868;10.730;2022-08-19T04:33:47;17.70;99.90
25983;DHT22;13773;48.868;10.730;2022-08-19T04:36:29;17.70;99.90
25983;DHT22;13773;48.868;10.730;2022-08-19T04:38:59;17.70;99.90
25983;DHT22;13773;48.868;10.730;2022-08-19T04:41:26;17.70;99.90
25983;DHT22;13773;48.868;10.730;2022-08-19T04:44:12;17.70;99.90
25983;DHT22;13773;48.868;10.730;2022-08-19T04:46:39;17.70;99.90
25983;DHT22;13773;48.868;10.730;2022-08-19T04:49:06;17.70;99.90
25983;DHT22;13773;48.868;10.730;2022-08-19T04:51:33;17.70;99.90
25983;DHT22;13773;48.868;10.730;2022-08-19T04:54:01;17.80;99.90
25983;DHT22;13773;48.868;10.730;2022-08-19T04:56:27;17.80;99.90
25983;DHT22;13773;48.868;10.730;2022-08-19T04:58:54;17.80;99.90
25983;DHT22;13773;48.868;10.730;2022-08-19T05:01:26;17.80;99.90
25983;DHT22;13773;48.868;10.730;2022-08-19T05:03:55;17.80;99.90
25983;DHT22;13773;48.868;10.730;2022-08-19T05:06:22;17.80;99.90
25983;DHT22;13773;48.868;10.730;2022-08-19T05:08:49;17.90;99.90
25983;DHT22;13773;48.868;10.730;2022-08-19T05:11:24;17.80;99.90
25983;DHT22;13773;48.868;10.730;2022-08-19T05:13:51;17.90;99.90
25983;DHT22;13773;48.868;10.730;2022-08-19T05:16:19;17.90;99.90
25983;DHT22;13773;48.868;10.730;2022-08-19T05:18:46;17.90;99.90
25983;DHT22;13773;48.868;10.730;2022-08-19T05:21:30;18.00;99.90
25983;DHT22;13773;48.868;10.730;2022-08-19T05:24:16;18.00;99.90
25983;DHT22;13773;48.868;10.730;2022-08-19T05:26:44;17.90;99.90
25983;DHT22;13773;48.868;10.730;2022-08-19T05:29:16;17.90;99.90
25983;DHT22;13773;48.868;10.730;2022-08-19T05:31:42;17.90;99.90
25983;DHT22;13773;48.868;10.730;2022-08-19T05:34:09;17.90;99.90
25983;DHT22;13773;48.868;10.730;2022-08-19T05:36:42;17.90;99.90
25983;DHT22;13773;48.868;10.730;2022-08-19T05:39:13;18.00;99.90
25983;DHT22;13773;48.868;10.730;2022-08-19T05:41:45;17.90;99.90
25983;DHT22;13773;48.868;10.730;2022-08-19T05:44:11;18.00;99.90
25983;DHT22;13773;48.868;10.730;2022-08-19T05:46:38;18.00;99.90
25983;DHT22;13773;48.868;10.730;2022-08-19T05:49:05;18.00;99.90
25983;DHT22;13773;48.868;10.730;2022-08-19T05:51:33;17.90;99.90
25983;DHT22;13773;48.868;10.730;2022-08-19T05:54:04;17.90;99.90
25983;DHT22;13773;48.868;10.730;2022-08-19T05:56:31;18.00;99.90
25983;DHT22;13773;48.868;10.730;2022-08-19T05:58:58;18.00;99.90
25983;DHT22;13773;48.868;10.730;2022-08-19T06:01:25;18.10;99.90
25983;DHT22;13773;48.868;10.730;2022-08-19T06:03:51;18.10;99.90
25983;DHT22;13773;48.868;10.730;2022-08-19T06:06:18;18.10;99.90
25983;DHT22;13773;48.868;10.730;2022-08-19T06:08:44;18.10;99.90
25983;DHT22;13773;48.868;10.730;2022-08-19T06:11:28;18.10;99.90
25983;DHT22;13773;48.868;10.730;2022-08-19T06:14:01;18.10;99.90
25983;DHT22;13773;48.868;10.730;2022-08-19T06:16:27;18.00;99.90
25983;DHT22;13773;48.868;10.730;2022-08-19T06:18:54;18.10;99.90
25983;DHT22;13773;48.868;10.730;2022-08-19T06:21:23;15.30;99.90
25983;DHT22;13773;48.868;10.730;2022-08-19T06:23:50;17.90;99.90
25983;DHT22;13773;48.868;10.730;2022-08-19T06:26:18;17.90;99.90
25983;DHT22;13773;48.868;10.730;2022-08-19T06:28:45;17.90;99.90
25983;DHT22;13773;48.868;10.730;2022-08-19T06:31:22;17.90;99.90
25983;DHT22;13773;48.868;10.730;2022-08-19T06:33:49;17.90;99.90
25983;DHT22;13773;48.868;10.730;2022-08-19T06:38:43;18.00;99.90
25983;DHT22;13773;48.868;10.730;2022-08-19T06:41:09;18.00;99.90
25983;DHT22;13773;48.868;10.730;2022-08-19T06:43:35;18.00;99.90
25983;DHT22;13773;48.868;10.730;2022-08-19T06:46:02;18.00;99.90
25983;DHT22;13773;48.868;10.730;2022-08-19T06:48:29;18.10;99.90
25983;DHT22;13773;48.868;10.730;2022-08-19T06:50:55;18.00;99.90
25983;DHT22;13773;48.868;10.730;2022-08-19T06:53:21;18.00;99.90
25983;DHT22;13773;48.868;10.730;2022-08-19T06:55:47;17.90;99.90
25983;DHT22;13773;48.868;10.730;2022-08-19T06:58:12;17.80;99.90
25983;DHT22;13773;48.868;10.730;2022-08-19T07:00:39;17.90;99.90
25983;DHT22;13773;48.868;10.730;2022-08-19T07:03:05;18.00;99.90
25983;DHT22;13773;48.868;10.730;2022-08-19T07:05:31;18.00;99.90
25983;DHT22;13773;48.868;10.730;2022-08-19T07:07:57;18.00;99.90
25983;DHT22;13773;48.868;10.730;2022-08-19T07:10:23;18.10;99.90
25983;DHT22;13773;48.868;10.730;2022-08-19T07:12:49;18.10;99.90
25983;DHT22;13773;48.868;10.730;2022-08-19T07:15:16;18.20;99.90
25983;DHT22;13773;48.868;10.730;2022-08-19T07:17:42;18.10;99.90
25983;DHT22;13773;48.868;10.730;2022-08-19T07:20:09;18.30;99.90
25983;DHT22;13773;48.868;10.730;2022-08-19T07:22:39;18.20;99.90
25983;DHT22;13773;48.868;10.730;2022-08-19T07:25:07;18.20;99.90
25983;DHT22;13773;48.868;10.730;2022-08-19T07:27:33;18.20;99.90
25983;DHT22;13773;48.868;10.730;2022-08-19T07:30:00;18.30;99.90
25983;DHT22;13773;48.868;10.730;2022-08-19T07:32:26;18.30;99.90
25983;DHT22;13773;48.868;10.730;2022-08-19T07:34:52;18.40;99.90
25983;DHT22;13773;48.868;10.730;2022-08-19T07:37:17;18.40;99.90
25983;DHT22;13773;48.868;10.730;2022-08-19T07:39:43;18.40;99.90
25983;DHT22;13773;48.868;10.730;2022-08-19T07:42:11;18.40;99.90
25983;DHT22;13773;48.868;10.730;2022-08-19T07:44:39;18.40;99.90
25983;DHT22;13773;48.868;10.730;2022-08-19T07:47:05;18.40;99.90
25983;DHT22;13773;48.868;10.730;2022-08-19T07:49:32;18.50;99.90
25983;DHT22;13773;48.868;10.730;2022-08-19T07:52:02;18.50;99.90
25983;DHT22;13773;48.868;10.730;2022-08-19T07:54:32;18.40;99.90
25983;DHT22;13773;48.868;10.730;2022-08-19T07:57:00;18.40;99.90
25983;DHT22;13773;48.868;10.730;2022-08-19T07:59:26;18.50;99.90
25983;DHT22;13773;48.868;10.730;2022-08-19T08:01:54;18.60;99.90
25983;DHT22;13773;48.868;10.730;2022-08-19T08:04:20;18.50;99.90
25983;DHT22;13773;48.868;10.730;2022-08-19T08:07:06;18.60;99.90
25983;DHT22;13773;48.868;10.730;2022-08-19T08:09:50;18.50;99.90
25983;DHT22;13773;48.868;10.730;2022-08-19T08:12:24;18.40;99.90
25983;DHT22;13773;48.868;10.730;2022-08-19T08:14:55;18.40;99.90
25983;DHT22;13773;48.868;10.730;2022-08-19T08:17:24;18.40;99.90
25983;DHT22;13773;48.868;10.730;2022-08-19T08:19:50;18.40;99.90
25983;DHT22;13773;48.868;10.730;2022-08-19T08:22:18;18.40;99.90
25983;DHT22;13773;48.868;10.730;2022-08-19T08:25:13;18.40;99.90
25983;DHT22;13773;48.868;10.730;2022-08-19T08:27:40;18.30;99.90
25983;DHT22;13773;48.868;10.730;2022-08-19T08:30:16;18.40;99.90
25983;DHT22;13773;48.868;10.730;2022-08-19T08:32:43;18.40;99.90
25983;DHT22;13773;48.868;10.730;2022-08-19T08:35:13;18.40;99.90
25983;DHT22;13773;48.868;10.730;2022-08-19T08:37:39;18.50;99.90
25983;DHT22;13773;48.868;10.730;2022-08-19T08:40:17;18.50;99.90
25983;DHT22;13773;48.868;10.730;2022-08-19T08:42:54;18.70;99.90
25983;DHT22;13773;48.868;10.730;2022-08-19T08:45:22;18.80;99.90
25983;DHT22;13773;48.868;10.730;2022-08-19T08:47:50;19.00;99.90
25983;DHT22;13773;48.868;10.730;2022-08-19T08:50:56;18.90;99.90
25983;DHT22;13773;48.868;10.730;2022-08-19T08:53:18;19.00;99.90
25983;DHT22;13773;48.868;10.730;2022-08-19T08:55:44;19.10;99.90
25983;DHT22;13773;48.868;10.730;2022-08-19T08:58:26;19.10;99.90
25983;DHT22;13773;48.868;10.730;2022-08-19T09:00:54;19.10;99.90
25983;DHT22;13773;48.868;10.730;2022-08-19T09:03:25;19.00;99.90
25983;DHT22;13773;48.868;10.730;2022-08-19T09:06:07;19.00;99.90
25983;DHT22;13773;48.868;10.730;2022-08-19T09:16:51;18.90;99.90
25983;DHT22;13773;48.868;10.730;2022-08-19T09:19:17;18.90;99.90
25983;DHT22;13773;48.868;10.730;2022-08-19T09:21:43;19.00;99.90
25983;DHT22;13773;48.868;10.730;2022-08-19T09:24:08;18.90;99.90
25983;DHT22;13773;48.868;10.730;2022-08-19T09:26:34;18.90;99.90
25983;DHT22;13773;48.868;10.730;2022-08-19T09:29:01;18.80;99.90
25983;DHT22;13773;48.868;10.730;2022-08-19T09:31:30;19.00;99.90
25983;DHT22;13773;48.868;10.730;2022-08-19T09:33:58;19.20;99.90
25983;DHT22;13773;48.868;10.730;2022-08-19T09:36:27;19.40;99.90
25983;DHT22;13773;48.868;10.730;2022-08-19T09:38:55;19.80;99.90
25983;DHT22;13773;48.868;10.730;2022-08-19T09:41:24;19.90;99.90
25983;DHT22;13773;48.868;10.730;2022-08-19T09:43:52;20.00;99.90
25983;DHT22;13773;48.868;10.730;2022-08-19T09:46:22;19.90;99.90
25983;DHT22;13773;48.868;10.730;2022-08-19T09:48:49;20.00;99.90
25983;DHT22;13773;48.868;10.730;2022-08-19T09:51:24;20.30;99.90
25983;DHT22;13773;48.868;10.730;2022-08-19T09:53:52;20.20;99.90
25983;DHT22;13773;48.868;10.730;2022-08-19T09:56:20;20.10;99.90
25983;DHT22;13773;48.868;10.730;2022-08-19T09:58:47;19.80;99.90
25983;DHT22;13773;48.868;10.730;2022-08-19T10:01:24;20.10;99.90
25983;DHT22;13773;48.868;10.730;2022-08-19T10:03:53;20.20;99.90
25983;DHT22;13773;48.868;10.730;2022-08-19T10:06:21;20.30;99.90
25983;DHT22;13773;48.868;10.730;2022-08-19T10:08:47;20.20;99.90
25983;DHT22;13773;48.868;10.730;2022-08-19T10:11:13;20.30;99.90
25983;DHT22;13773;48.868;10.730;2022-08-19T10:13:43;20.20;99.90
25983;DHT22;13773;48.868;10.730;2022-08-19T10:16:12;20.30;99.90
25983;DHT22;13773;48.868;10.730;2022-08-19T10:18:38;20.10;99.90
25983;DHT22;13773;48.868;10.730;2022-08-19T10:21:16;20.00;99.90
25983;DHT22;13773;48.868;10.730;2022-08-19T10:23:45;20.00;99.90
25983;DHT22;13773;48.868;10.730;2022-08-19T10:26:17;20.00;99.90
25983;DHT22;13773;48.868;10.730;2022-08-19T10:28:43;20.10;99.90
25983;DHT22;13773;48.868;10.730;2022-08-19T10:31:11;20.00;99.90
25983;DHT22;13773;48.868;10.730;2022-08-19T10:33:38;20.00;99.90
25983;DHT22;13773;48.868;10.730;2022-08-19T10:36:11;20.00;99.90
25983;DHT22;13773;48.868;10.730;2022-08-19T10:38:37;19.80;99.90
25983;DHT22;13773;48.868;10.730;2022-08-19T10:41:27;19.90;99.90
25983;DHT22;13773;48.868;10.730;2022-08-19T10:43:55;19.50;99.90
25983;DHT22;13773;48.868;10.730;2022-08-19T10:46:23;19.20;99.90
25983;DHT22;13773;48.868;10.730;2022-08-19T10:48:49;19.30;99.90
25983;DHT22;13773;48.868;10.730;2022-08-19T10:51:16;19.20;99.90
25983;DHT22;13773;48.868;10.730;2022-08-19T10:54:01;19.30;99.90
25983;DHT22;13773;48.868;10.730;2022-08-19T10:56:28;19.10;99.90
25983;DHT22;13773;48.868;10.730;2022-08-19T10:59:14;19.00;99.90
25983;DHT22;13773;48.868;10.730;2022-08-19T11:01:41;19.20;99.90
25983;DHT22;13773;48.868;10.730;2022-08-19T11:04:07;19.10;99.90
25983;DHT22;13773;48.868;10.730;2022-08-19T11:06:35;18.90;99.90
25983;DHT22;13773;48.868;10.730;2022-08-19T11:09:02;19.10;99.90
25983;DHT22;13773;48.868;10.730;2022-08-19T11:11:28;19.20;99.90
25983;DHT22;13773;48.868;10.730;2022-08-19T11:13:54;19.10;99.90
25983;DHT22;13773;48.868;10.730;2022-08-19T11:16:22;19.40;99.90
25983;DHT22;13773;48.868;10.730;2022-08-19T11:18:54;19.30;99.90
25983;DHT22;13773;48.868;10.730;2022-08-19T11:21:28;19.40;99.90
25983;DHT22;13773;48.868;10.730;2022-08-19T11:23:58;19.40;99.90
25983;DHT22;13773;48.868;10.730;2022-08-19T11:26:24;19.40;99.90
25983;DHT22;13773;48.868;10.730;2022-08-19T11:28:50;19.50;99.90
25983;DHT22;13773;48.868;10.730;2022-08-19T11:31:21;19.50;99.90
25983;DHT22;13773;48.868;10.730;2022-08-19T11:33:47;19.50;99.90
25983;DHT22;13773;48.868;10.730;2022-08-19T11:36:18;19.30;99.90
25983;DHT22;13773;48.868;10.730;2022-08-19T11:38:48;19.40;99.90
25983;DHT22;13773;48.868;10.730;2022-08-19T11:41:16;19.30;99.90
25983;DHT22;13773;48.868;10.730;2022-08-19T11:43:42;19.40;99.90
25983;DHT22;13773;48.868;10.730;2022-08-19T11:46:12;19.20;99.90
25983;DHT22;13773;48.868;10.730;2022-08-19T11:48:39;19.30;99.90
25983;DHT22;13773;48.868;10.730;2022-08-19T11:51:15;19.30;99.90
25983;DHT22;13773;48.868;10.730;2022-08-19T11:53:41;19.30;99.90
25983;DHT22;13773;48.868;10.730;2022-08-19T11:56:08;19.00;99.90
25983;DHT22;13773;48.868;10.730;2022-08-19T11:58:34;18.90;99.90
25983;DHT22;13773;48.868;10.730;2022-08-19T12:01:05;19.20;99.90
25983;DHT22;13773;48.868;10.730;2022-08-19T12:03:31;19.40;99.90
25983;DHT22;13773;48.868;10.730;2022-08-19T12:05:56;19.20;99.90
25983;DHT22;13773;48.868;10.730;2022-08-19T12:08:22;19.40;99.90
25983;DHT22;13773;48.868;10.730;2022-08-19T12:10:48;19.10;99.90
25983;DHT22;13773;48.868;10.730;2022-08-19T12:13:14;19.00;99.90
25983;DHT22;13773;48.868;10.730;2022-08-19T12:15:44;19.30;99.90
25983;DHT22;13773;48.868;10.730;2022-08-19T12:18:10;19.20;99.90
25983;DHT22;13773;48.868;10.730;2022-08-19T12:20:39;19.20;99.90
25983;DHT22;13773;48.868;10.730;2022-08-19T12:23:05;19.40;99.90
25983;DHT22;13773;48.868;10.730;2022-08-19T12:25:32;19.20;99.90
25983;DHT22;13773;48.868;10.730;2022-08-19T12:27:58;19.10;99.90
25983;DHT22;13773;48.868;10.730;2022-08-19T12:30:24;19.00;99.90
25983;DHT22;13773;48.868;10.730;2022-08-19T12:32:50;18.90;99.90
25983;DHT22;13773;48.868;10.730;2022-08-19T12:35:17;18.90;99.90
25983;DHT22;13773;48.868;10.730;2022-08-19T12:37:46;18.90;99.90
25983;DHT22;13773;48.868;10.730;2022-08-19T12:40:13;19.10;99.90
25983;DHT22;13773;48.868;10.730;2022-08-19T12:42:39;19.20;99.90
25983;DHT22;13773;48.868;10.730;2022-08-19T12:45:11;19.10;99.90
25983;DHT22;13773;48.868;10.730;2022-08-19T12:47:38;19.20;99.90
25983;DHT22;13773;48.868;10.730;2022-08-19T12:50:05;19.10;99.90
25983;DHT22;13773;48.868;10.730;2022-08-19T12:52:34;19.20;99.90
25983;DHT22;13773;48.868;10.730;2022-08-19T12:55:03;19.20;99.90
25983;DHT22;13773;48.868;10.730;2022-08-19T12:57:29;19.20;99.90
25983;DHT22;13773;48.868;10.730;2022-08-19T12:59:56;19.10;99.90
25983;DHT22;13773;48.868;10.730;2022-08-19T13:02:22;19.00;99.90
25983;DHT22;13773;48.868;10.730;2022-08-19T13:04:48;18.80;99.90
25983;DHT22;13773;48.868;10.730;2022-08-19T13:07:13;18.90;99.90
25983;DHT22;13773;48.868;10.730;2022-08-19T13:09:39;19.00;99.90
25983;DHT22;13773;48.868;10.730;2022-08-19T13:12:08;18.70;99.90
25983;DHT22;13773;48.868;10.730;2022-08-19T13:14:38;18.50;99.90
25983;DHT22;13773;48.868;10.730;2022-08-19T13:17:06;18.60;99.90
25983;DHT22;13773;48.868;10.730;2022-08-19T13:19:32;18.50;99.90
25983;DHT22;13773;48.868;10.730;2022-08-19T13:21:58;18.30;99.90
25983;DHT22;13773;48.868;10.730;2022-08-19T13:24:24;18.40;99.90
25983;DHT22;13773;48.868;10.730;2022-08-19T13:26:50;18.40;99.90
25983;DHT22;13773;48.868;10.730;2022-08-19T13:29:16;18.10;99.90
25983;DHT22;13773;48.868;10.730;2022-08-19T13:32:00;18.00;99.90
25983;DHT22;13773;48.868;10.730;2022-08-19T13:34:44;18.00;99.90
25983;DHT22;13773;48.868;10.730;2022-08-19T13:37:12;18.00;99.90
25983;DHT22;13773;48.868;10.730;2022-08-19T13:39:37;18.10;99.90
25983;DHT22;13773;48.868;10.730;2022-08-19T13:42:04;18.10;99.90
25983;DHT22;13773;48.868;10.730;2022-08-19T13:44:31;18.10;99.90
25983;DHT22;13773;48.868;10.730;2022-08-19T13:47:02;18.00;99.90
25983;DHT22;13773;48.868;10.730;2022-08-19T13:49:31;17.80;99.90
25983;DHT22;13773;48.868;10.730;2022-08-19T13:51:57;17.90;99.90
25983;DHT22;13773;48.868;10.730;2022-08-19T13:54:22;17.90;99.90
25983;DHT22;13773;48.868;10.730;2022-08-19T13:56:48;17.80;99.90
25983;DHT22;13773;48.868;10.730;2022-08-19T13:59:15;17.90;99.90
25983;DHT22;13773;48.868;10.730;2022-08-19T14:01:41;17.80;99.90
25983;DHT22;13773;48.868;10.730;2022-08-19T14:04:07;17.80;99.90
25983;DHT22;13773;48.868;10.730;2022-08-19T14:06:34;17.90;99.90
25983;DHT22;13773;48.868;10.730;2022-08-19T14:08:59;15.50;99.90
25983;DHT22;13773;48.868;10.730;2022-08-19T14:11:28;17.80;99.90
25983;DHT22;13773;48.868;10.730;2022-08-19T14:13:53;17.90;99.90
25983;DHT22;13773;48.868;10.730;2022-08-19T14:16:19;17.90;99.90
25983;DHT22;13773;48.868;10.730;2022-08-19T14:18:47;17.80;99.90
25983;DHT22;13773;48.868;10.730;2022-08-19T14:21:31;17.80;99.90
25983;DHT22;13773;48.868;10.730;2022-08-19T14:23:56;17.80;99.90
25983;DHT22;13773;48.868;10.730;2022-08-19T14:26:22;17.90;99.90
25983;DHT22;13773;48.868;10.730;2022-08-19T14:28:49;18.00;99.90
25983;DHT22;13773;48.868;10.730;2022-08-19T14:31:16;17.80;99.90
25983;DHT22;13773;48.868;10.730;2022-08-19T14:33:45;17.70;99.90
25983;DHT22;13773;48.868;10.730;2022-08-19T14:36:11;17.60;99.90
25983;DHT22;13773;48.868;10.730;2022-08-19T14:38:37;17.80;99.90
25983;DHT22;13773;48.868;10.730;2022-08-19T14:41:13;17.70;99.90
25983;DHT22;13773;48.868;10.730;2022-08-19T14:43:41;17.70;99.90
25983;DHT22;13773;48.868;10.730;2022-08-19T14:46:07;17.60;99.90
25983;DHT22;13773;48.868;10.730;2022-08-19T14:48:35;17.80;99.90
25983;DHT22;13773;48.868;10.730;2022-08-19T14:51:04;17.80;99.90
25983;DHT22;13773;48.868;10.730;2022-08-19T14:53:29;17.70;99.90
25983;DHT22;13773;48.868;10.730;2022-08-19T14:55:55;17.80;99.90
25983;DHT22;13773;48.868;10.730;2022-08-19T14:58:21;17.80;99.90
25983;DHT22;13773;48.868;10.730;2022-08-19T15:00:48;17.80;99.90
25983;DHT22;13773;48.868;10.730;2022-08-19T15:03:13;17.80;99.90
25983;DHT22;13773;48.868;10.730;2022-08-19T15:05:39;17.50;99.90
25983;DHT22;13773;48.868;10.730;2022-08-19T15:08:06;17.40;99.90
25983;DHT22;13773;48.868;10.730;2022-08-19T15:10:32;17.40;99.90
25983;DHT22;13773;48.868;10.730;2022-08-19T15:12:57;17.40;99.90
25983;DHT22;13773;48.868;10.730;2022-08-19T15:15:23;17.30;99.90
25983;DHT22;13773;48.868;10.730;2022-08-19T15:17:49;17.30;99.90
25983;DHT22;13773;48.868;10.730;2022-08-19T15:20:19;17.30;99.90
25983;DHT22;13773;48.868;10.730;2022-08-19T15:22:45;17.20;99.90
25983;DHT22;13773;48.868;10.730;2022-08-19T15:25:13;17.10;99.90
25983;DHT22;13773;48.868;10.730;2022-08-19T15:27:40;17.30;99.90
25983;DHT22;13773;48.868;10.730;2022-08-19T15:30:10;17.10;99.90
25983;DHT22;13773;48.868;10.730;2022-08-19T15:32:37;17.00;99.90
25983;DHT22;13773;48.868;10.730;2022-08-19T15:35:03;17.10;99.90